sensor_id;sensor_type;location;lat;lon;timestamp;pressure;altitude;pressure_sealevel;temperature;humidity
49461;BME280;35355;49.198;-0.368;2023-03-25T00:01:20;100172.00;;;10.21;69.58
49461;BME280;35355;49.198;-0.368;2023-03-25T00:03:50;100180.19;;;10.21;69.21
49461;BME280;35355;49.198;-0.368;2023-03-25T00:06:18;100178.03;;;10.23;69.31
49461;BME280;35355;49.198;-0.368;2023-03-25T00:08:43;100170.66;;;10.24;69.46
49461;BME280;35355;49.198;-0.368;2023-03-25T00:11:08;100173.09;;;10.25;69.65
49461;BME280;35355;49.198;-0.368;2023-03-25T00:13:35;100178.00;;;10.28;69.63
49461;BME280;35355;49.198;-0.368;2023-03-25T00:16:01;100177.47;;;10.31;69.25
49461;BME280;35355;49.198;-0.368;2023-03-25T00:18:29;100177.47;;;10.31;69.31
49461;BME280;35355;49.198;-0.368;2023-03-25T00:20:58;100176.66;;;10.31;69.69
49461;BME280;35355;49.198;-0.368;2023-03-25T00:23:24;100170.13;;;10.32;69.66
49461;BME280;35355;49.198;-0.368;2023-03-25T00:25:49;100173.66;;;10.32;69.41
49461;BME280;35355;49.198;-0.368;2023-03-25T00:28:17;100168.19;;;10.32;69.67
49461;BME280;35355;49.198;-0.368;2023-03-25T00:30:44;100167.69;;;10.35;69.24
49461;BME280;35355;49.198;-0.368;2023-03-25T00:33:09;100167.41;;;10.37;69.37
49461;BME280;35355;49.198;-0.368;2023-03-25T00:35:39;100172.31;;;10.40;69.27
49461;BME280;35355;49.198;-0.368;2023-03-25T00:38:16;100177.50;;;10.47;69.25
49461;BME280;35355;49.198;-0.368;2023-03-25T00:40:42;100174.22;;;10.50;69.30
49461;BME280;35355;49.198;-0.368;2023-03-25T00:43:09;100178.03;;;10.54;69.66
49461;BME280;35355;49.198;-0.368;2023-03-25T00:45:34;100179.66;;;10.55;69.57
49461;BME280;35355;49.198;-0.368;2023-03-25T00:48:00;100175.81;;;10.61;69.25
49461;BME280;35355;49.198;-0.368;2023-03-25T00:50:25;100178.53;;;10.61;69.13
49461;BME280;35355;49.198;-0.368;2023-03-25T00:52:51;100177.47;;;10.67;69.24
49461;BME280;35355;49.198;-0.368;2023-03-25T00:55:20;100160.53;;;10.70;69.51
49461;BME280;35355;49.198;-0.368;2023-03-25T00:57:46;100154.22;;;10.75;69.32
49461;BME280;35355;49.198;-0.368;2023-03-25T01:00:14;100170.06;;;10.78;69.05
49461;BME280;35355;49.198;-0.368;2023-03-25T01:02:40;100157.78;;;10.81;69.33
49461;BME280;35355;49.198;-0.368;2023-03-25T01:05:08;100168.69;;;10.81;69.27
49461;BME280;35355;49.198;-0.368;2023-03-25T01:07:35;100179.06;;;10.79;68.85
49461;BME280;35355;49.198;-0.368;2023-03-25T01:10:00;100179.88;;;10.79;69.21
49461;BME280;35355;49.198;-0.368;2023-03-25T01:12:27;100188.88;;;10.80;68.66
49461;BME280;35355;49.198;-0.368;2023-03-25T01:14:53;100179.06;;;10.79;69.04
49461;BME280;35355;49.198;-0.368;2023-03-25T01:17:18;100180.97;;;10.78;68.60
49461;BME280;35355;49.198;-0.368;2023-03-25T01:19:44;100173.59;;;10.79;69.08
49461;BME280;35355;49.198;-0.368;2023-03-25T01:22:10;100168.13;;;10.79;68.83
49461;BME280;35355;49.198;-0.368;2023-03-25T01:24:36;100179.34;;;10.77;68.79
49461;BME280;35355;49.198;-0.368;2023-03-25T01:27:02;100179.34;;;10.77;68.70
49461;BME280;35355;49.198;-0.368;2023-03-25T01:29:27;100178.53;;;10.77;68.38
49461;BME280;35355;49.198;-0.368;2023-03-25T01:31:52;100164.59;;;10.78;68.51
49461;BME280;35355;49.198;-0.368;2023-03-25T01:34:18;100180.97;;;10.78;68.79
49461;BME280;35355;49.198;-0.368;2023-03-25T01:36:43;100181.78;;;10.79;68.64
49461;BME280;35355;49.198;-0.368;2023-03-25T01:39:14;100176.31;;;10.79;68.27
49461;BME280;35355;49.198;-0.368;2023-03-25T01:41:41;100163.22;;;10.81;68.21
49461;BME280;35355;49.198;-0.368;2023-03-25T01:46:42;100174.69;;;10.83;68.29
49461;BME280;35355;49.198;-0.368;2023-03-25T01:49:13;100171.16;;;10.82;68.06
49461;BME280;35355;49.198;-0.368;2023-03-25T01:51:42;100178.50;;;10.82;68.32
49461;BME280;35355;49.198;-0.368;2023-03-25T01:54:10;100178.22;;;10.83;68.34
49461;BME280;35355;49.198;-0.368;2023-03-25T01:56:38;100169.22;;;10.88;68.46
49461;BME280;35355;49.198;-0.368;2023-03-25T01:59:07;100172.47;;;10.90;67.83
49461;BME280;35355;49.198;-0.368;2023-03-25T02:01:35;100169.75;;;10.90;68.02
49461;BME280;35355;49.198;-0.368;2023-03-25T02:04:01;100178.75;;;10.91;67.81
49461;BME280;35355;49.198;-0.368;2023-03-25T02:06:41;100192.69;;;10.89;68.16
49461;BME280;35355;49.198;-0.368;2023-03-25T02:09:08;100187.50;;;10.87;68.18
49461;BME280;35355;49.198;-0.368;2023-03-25T02:11:36;100204.97;;;10.86;68.26
49461;BME280;35355;49.198;-0.368;2023-03-25T02:14:09;100207.97;;;10.85;68.34
49461;BME280;35355;49.198;-0.368;2023-03-25T02:19:51;100214.28;;;10.75;68.08
49461;BME280;35355;49.198;-0.368;2023-03-25T02:28:36;100218.94;;;10.64;68.99
49461;BME280;35355;49.198;-0.368;2023-03-25T02:31:35;100238.03;;;10.64;68.79
49461;BME280;35355;49.198;-0.368;2023-03-25T02:37:21;100211.31;;;10.46;69.14
49461;BME280;35355;49.198;-0.368;2023-03-25T02:40:30;100227.13;;;10.39;69.03
49461;BME280;35355;49.198;-0.368;2023-03-25T02:45:55;100223.88;;;10.37;69.56
49461;BME280;35355;49.198;-0.368;2023-03-25T02:48:28;100211.03;;;10.32;69.58
49461;BME280;35355;49.198;-0.368;2023-03-25T02:50:59;100211.28;;;10.25;69.72
49461;BME280;35355;49.198;-0.368;2023-03-25T02:53:30;100209.09;;;10.17;69.61
49461;BME280;35355;49.198;-0.368;2023-03-25T02:56:01;100211.03;;;10.11;69.80
49461;BME280;35355;49.198;-0.368;2023-03-25T02:58:28;100216.19;;;10.08;70.27
49461;BME280;35355;49.198;-0.368;2023-03-25T03:00:55;100224.38;;;10.03;70.00
49461;BME280;35355;49.198;-0.368;2023-03-25T03:03:25;100231.72;;;9.97;70.20
49461;BME280;35355;49.198;-0.368;2023-03-25T03:05:52;100240.72;;;9.92;69.99
49461;BME280;35355;49.198;-0.368;2023-03-25T03:11:10;100250.22;;;9.84;69.55
49461;BME280;35355;49.198;-0.368;2023-03-25T03:22:00;100267.91;;;9.77;69.45
49461;BME280;35355;49.198;-0.368;2023-03-25T03:24:56;100267.91;;;9.72;69.22
49461;BME280;35355;49.198;-0.368;2023-03-25T03:27:36;100261.34;;;9.68;69.71
49461;BME280;35355;49.198;-0.368;2023-03-25T03:32:42;100271.97;;;9.64;69.64
49461;BME280;35355;49.198;-0.368;2023-03-25T03:35:17;100271.97;;;9.64;69.55
49461;BME280;35355;49.198;-0.368;2023-03-25T03:37:49;100282.63;;;9.65;69.71
49461;BME280;35355;49.198;-0.368;2023-03-25T03:40:18;100280.97;;;9.64;69.64
49461;BME280;35355;49.198;-0.368;2023-03-25T03:45:44;100290.78;;;9.65;69.72
49461;BME280;35355;49.198;-0.368;2023-03-25T03:48:23;100289.69;;;9.66;69.80
49461;BME280;35355;49.198;-0.368;2023-03-25T03:50:55;100286.69;;;9.68;69.70
49461;BME280;35355;49.198;-0.368;2023-03-25T03:53:25;100290.78;;;9.71;69.57
49461;BME280;35355;49.198;-0.368;2023-03-25T03:56:02;100294.06;;;9.68;69.82
49461;BME280;35355;49.198;-0.368;2023-03-25T03:58:34;100294.06;;;9.68;69.81
49461;BME280;35355;49.198;-0.368;2023-03-25T04:01:09;100282.63;;;9.65;69.44
49461;BME280;35355;49.198;-0.368;2023-03-25T04:03:42;100282.63;;;9.65;69.83
49461;BME280;35355;49.198;-0.368;2023-03-25T04:06:21;100288.06;;;9.65;69.59
49461;BME280;35355;49.198;-0.368;2023-03-25T04:08:54;100288.88;;;9.66;69.69
49461;BME280;35355;49.198;-0.368;2023-03-25T04:11:26;100297.06;;;9.66;69.74
49461;BME280;35355;49.198;-0.368;2023-03-25T04:13:56;100297.06;;;9.66;69.76
49461;BME280;35355;49.198;-0.368;2023-03-25T04:16:23;100297.31;;;9.70;69.79
49461;BME280;35355;49.198;-0.368;2023-03-25T04:18:49;100304.41;;;9.71;70.09
49461;BME280;35355;49.198;-0.368;2023-03-25T04:21:18;100318.03;;;9.71;69.87
49461;BME280;35355;49.198;-0.368;2023-03-25T04:23:44;100320.78;;;9.71;70.14
49461;BME280;35355;49.198;-0.368;2023-03-25T04:26:11;100317.25;;;9.70;69.97
49461;BME280;35355;49.198;-0.368;2023-03-25T04:28:37;100319.13;;;9.70;70.39
49461;BME280;35355;49.198;-0.368;2023-03-25T04:31:11;100327.03;;;9.71;70.14
49461;BME280;35355;49.198;-0.368;2023-03-25T04:33:43;100334.44;;;9.76;70.45
49461;BME280;35355;49.198;-0.368;2023-03-25T04:36:13;100330.06;;;9.80;70.22
49461;BME280;35355;49.198;-0.368;2023-03-25T04:38:40;100323.28;;;9.82;70.57
49461;BME280;35355;49.198;-0.368;2023-03-25T04:41:06;100322.47;;;9.82;70.62
49461;BME280;35355;49.198;-0.368;2023-03-25T04:43:32;100327.66;;;9.83;70.63
49461;BME280;35355;49.198;-0.368;2023-03-25T04:45:58;100333.91;;;9.84;70.52
49461;BME280;35355;49.198;-0.368;2023-03-25T04:48:32;100344.53;;;9.86;70.49
49461;BME280;35355;49.198;-0.368;2023-03-25T04:51:00;100335.56;;;9.85;70.73
49461;BME280;35355;49.198;-0.368;2023-03-25T04:53:28;100333.38;;;9.87;70.73
49461;BME280;35355;49.198;-0.368;2023-03-25T04:55:54;100330.66;;;9.87;70.39
49461;BME280;35355;49.198;-0.368;2023-03-25T04:58:20;100332.28;;;9.88;70.74
49461;BME280;35355;49.198;-0.368;2023-03-25T05:00:49;100327.91;;;9.87;70.36
49461;BME280;35355;49.198;-0.368;2023-03-25T05:03:16;100334.22;;;9.88;70.84
49461;BME280;35355;49.198;-0.368;2023-03-25T05:05:41;100339.91;;;9.86;70.47
49461;BME280;35355;49.198;-0.368;2023-03-25T05:08:07;100331.47;;;9.88;70.82
49461;BME280;35355;49.198;-0.368;2023-03-25T05:10:33;100338.81;;;9.87;70.60
49461;BME280;35355;49.198;-0.368;2023-03-25T05:13:05;100339.63;;;9.82;70.57
49461;BME280;35355;49.198;-0.368;2023-03-25T05:15:32;100338.81;;;9.82;70.75
49461;BME280;35355;49.198;-0.368;2023-03-25T05:18:11;100336.34;;;9.80;70.63
49461;BME280;35355;49.198;-0.368;2023-03-25T05:20:42;100335.53;;;9.80;70.91
49461;BME280;35355;49.198;-0.368;2023-03-25T05:23:09;100339.91;;;9.81;70.91
49461;BME280;35355;49.198;-0.368;2023-03-25T05:25:42;100331.72;;;9.81;70.74
49461;BME280;35355;49.198;-0.368;2023-03-25T05:28:08;100337.16;;;9.81;70.76
49461;BME280;35355;49.198;-0.368;2023-03-25T05:30:41;100343.44;;;9.81;70.82
49461;BME280;35355;49.198;-0.368;2023-03-25T05:33:08;100353.00;;;9.84;71.02
49461;BME280;35355;49.198;-0.368;2023-03-25T05:35:35;100352.44;;;9.87;70.94
49461;BME280;35355;49.198;-0.368;2023-03-25T05:38:00;100359.28;;;9.90;71.08
49461;BME280;35355;49.198;-0.368;2023-03-25T05:40:26;100353.56;;;9.91;71.23
49461;BME280;35355;49.198;-0.368;2023-03-25T05:42:51;100356.03;;;9.93;71.07
49461;BME280;35355;49.198;-0.368;2023-03-25T05:45:19;100364.75;;;9.95;71.07
49461;BME280;35355;49.198;-0.368;2023-03-25T05:47:45;100366.41;;;9.96;71.32
49461;BME280;35355;49.198;-0.368;2023-03-25T05:50:11;100369.66;;;9.98;71.04
49461;BME280;35355;49.198;-0.368;2023-03-25T05:52:38;100371.63;;;10.03;71.19
49461;BME280;35355;49.198;-0.368;2023-03-25T05:55:07;100377.59;;;10.05;71.18
49461;BME280;35355;49.198;-0.368;2023-03-25T05:57:34;100377.88;;;10.08;71.06
49461;BME280;35355;49.198;-0.368;2023-03-25T06:00:00;100370.00;;;10.12;71.00
49461;BME280;35355;49.198;-0.368;2023-03-25T06:02:28;100378.19;;;10.17;70.98
49461;BME280;35355;49.198;-0.368;2023-03-25T06:04:54;100376.84;;;10.19;70.80
49461;BME280;35355;49.198;-0.368;2023-03-25T06:07:19;100386.41;;;10.22;70.77
49461;BME280;35355;49.198;-0.368;2023-03-25T06:09:47;100382.88;;;10.22;70.95
49461;BME280;35355;49.198;-0.368;2023-03-25T06:12:13;100395.97;;;10.25;70.77
49461;BME280;35355;49.198;-0.368;2023-03-25T06:14:40;100388.59;;;10.25;70.97
49461;BME280;35355;49.198;-0.368;2023-03-25T06:17:13;100389.94;;;10.23;70.73
49461;BME280;35355;49.198;-0.368;2023-03-25T06:19:39;100398.13;;;10.23;70.90
49461;BME280;35355;49.198;-0.368;2023-03-25T06:22:05;100401.13;;;10.21;70.99
49461;BME280;35355;49.198;-0.368;2023-03-25T06:24:36;100389.66;;;10.19;70.66
49461;BME280;35355;49.198;-0.368;2023-03-25T06:27:03;100393.75;;;10.16;70.71
49461;BME280;35355;49.198;-0.368;2023-03-25T06:29:28;100400.84;;;10.17;71.10
49461;BME280;35355;49.198;-0.368;2023-03-25T06:31:54;100403.31;;;10.19;70.97
49461;BME280;35355;49.198;-0.368;2023-03-25T06:34:19;100402.19;;;10.20;70.97
49461;BME280;35355;49.198;-0.368;2023-03-25T06:36:44;100402.19;;;10.20;71.10
49461;BME280;35355;49.198;-0.368;2023-03-25T06:39:14;100410.38;;;10.20;70.99
49461;BME280;35355;49.198;-0.368;2023-03-25T06:41:40;100403.56;;;10.23;70.91
49461;BME280;35355;49.198;-0.368;2023-03-25T06:44:05;100409.34;;;10.26;71.29
49461;BME280;35355;49.198;-0.368;2023-03-25T06:46:30;100396.78;;;10.30;71.42
49461;BME280;35355;49.198;-0.368;2023-03-25T06:48:56;100404.47;;;10.33;71.24
49461;BME280;35355;49.198;-0.368;2023-03-25T06:51:21;100401.16;;;10.31;70.93
49461;BME280;35355;49.198;-0.368;2023-03-25T06:53:48;100408.00;;;10.39;70.98
49461;BME280;35355;49.198;-0.368;2023-03-25T06:56:13;100408.84;;;10.45;71.05
49461;BME280;35355;49.198;-0.368;2023-03-25T06:58:38;100418.97;;;10.49;71.30
49461;BME280;35355;49.198;-0.368;2023-03-25T07:01:06;100432.34;;;10.51;71.31
49461;BME280;35355;49.198;-0.368;2023-03-25T07:03:32;100420.91;;;10.54;70.98
49461;BME280;35355;49.198;-0.368;2023-03-25T07:05:57;100428.28;;;10.59;71.12
49461;BME280;35355;49.198;-0.368;2023-03-25T07:08:23;100444.94;;;10.62;71.52
49461;BME280;35355;49.198;-0.368;2023-03-25T07:10:48;100440.56;;;10.66;71.05
49461;BME280;35355;49.198;-0.368;2023-03-25T07:13:14;100442.75;;;10.69;71.30
49461;BME280;35355;49.198;-0.368;2023-03-25T07:15:40;100448.22;;;10.75;71.45
49461;BME280;35355;49.198;-0.368;2023-03-25T07:18:05;100451.50;;;10.77;71.34
49461;BME280;35355;49.198;-0.368;2023-03-25T07:20:30;100451.50;;;10.82;71.21
49461;BME280;35355;49.198;-0.368;2023-03-25T07:22:56;100448.81;;;10.87;71.02
49461;BME280;35355;49.198;-0.368;2023-03-25T07:25:21;100454.25;;;10.92;71.15
49461;BME280;35355;49.198;-0.368;2023-03-25T07:27:47;100454.81;;;10.99;71.04
49461;BME280;35355;49.198;-0.368;2023-03-25T07:30:12;100466.84;;;11.03;71.19
49461;BME280;35355;49.198;-0.368;2023-03-25T07:32:38;100466.84;;;11.09;70.82
49461;BME280;35355;49.198;-0.368;2023-03-25T07:35:04;100467.66;;;11.14;70.81
49461;BME280;35355;49.198;-0.368;2023-03-25T07:37:29;100469.56;;;11.19;71.22
49461;BME280;35355;49.198;-0.368;2023-03-25T07:39:55;100459.19;;;11.26;71.17
49461;BME280;35355;49.198;-0.368;2023-03-25T07:42:20;100463.03;;;11.30;71.03
49461;BME280;35355;49.198;-0.368;2023-03-25T07:44:46;100472.84;;;11.36;71.34
49461;BME280;35355;49.198;-0.368;2023-03-25T07:47:11;100474.22;;;11.39;71.04
49461;BME280;35355;49.198;-0.368;2023-03-25T07:49:36;100471.22;;;11.40;70.96
49461;BME280;35355;49.198;-0.368;2023-03-25T07:52:06;100456.19;;;11.38;70.39
49461;BME280;35355;49.198;-0.368;2023-03-25T07:54:31;100474.50;;;11.37;70.49
49461;BME280;35355;49.198;-0.368;2023-03-25T07:56:56;100473.13;;;11.45;71.04
49461;BME280;35355;49.198;-0.368;2023-03-25T07:59:23;100472.88;;;11.52;70.79
49461;BME280;35355;49.198;-0.368;2023-03-25T08:01:48;100479.69;;;11.54;70.52
49461;BME280;35355;49.198;-0.368;2023-03-25T08:04:14;100485.72;;;11.56;70.41
49461;BME280;35355;49.198;-0.368;2023-03-25T08:06:40;100478.03;;;11.58;70.52
49461;BME280;35355;49.198;-0.368;2023-03-25T08:09:05;100485.41;;;11.63;70.44
49461;BME280;35355;49.198;-0.368;2023-03-25T08:11:31;100488.97;;;11.69;70.39
49461;BME280;35355;49.198;-0.368;2023-03-25T08:13:57;100494.97;;;11.76;70.49
49461;BME280;35355;49.198;-0.368;2023-03-25T08:16:22;100488.69;;;11.81;70.55
49461;BME280;35355;49.198;-0.368;2023-03-25T08:18:48;100491.69;;;11.84;70.43
49461;BME280;35355;49.198;-0.368;2023-03-25T08:21:17;100493.03;;;11.87;70.47
49461;BME280;35355;49.198;-0.368;2023-03-25T08:23:49;100500.44;;;11.91;70.61
49461;BME280;35355;49.198;-0.368;2023-03-25T08:26:15;100518.50;;;11.98;70.34
49461;BME280;35355;49.198;-0.368;2023-03-25T08:28:40;100512.75;;;11.99;70.04
49461;BME280;35355;49.198;-0.368;2023-03-25T08:31:06;100504.78;;;12.03;70.07
49461;BME280;35355;49.198;-0.368;2023-03-25T08:33:32;100510.56;;;12.06;70.11
49461;BME280;35355;49.198;-0.368;2023-03-25T08:36:04;100517.09;;;12.10;69.79
49461;BME280;35355;49.198;-0.368;2023-03-25T08:38:29;100503.97;;;12.13;69.73
49461;BME280;35355;49.198;-0.368;2023-03-25T08:40:58;100508.06;;;12.15;69.57
49461;BME280;35355;49.198;-0.368;2023-03-25T08:43:24;100519.25;;;12.19;69.54
49461;BME280;35355;49.198;-0.368;2023-03-25T08:45:50;100529.66;;;12.22;69.38
49461;BME280;35355;49.198;-0.368;2023-03-25T08:48:15;100532.09;;;12.23;69.39
49461;BME280;35355;49.198;-0.368;2023-03-25T08:50:41;100541.69;;;12.26;68.99
49461;BME280;35355;49.198;-0.368;2023-03-25T08:53:07;100534.00;;;12.28;69.23
49461;BME280;35355;49.198;-0.368;2023-03-25T08:55:32;100543.59;;;12.31;68.96
49461;BME280;35355;49.198;-0.368;2023-03-25T08:58:01;100553.97;;;12.34;69.11
49461;BME280;35355;49.198;-0.368;2023-03-25T09:00:27;100559.16;;;12.40;68.78
49461;BME280;35355;49.198;-0.368;2023-03-25T09:02:52;100571.19;;;12.50;68.62
49461;BME280;35355;49.198;-0.368;2023-03-25T09:05:18;100566.22;;;12.57;68.46
49461;BME280;35355;49.198;-0.368;2023-03-25T09:07:44;100575.25;;;12.62;68.16
49461;BME280;35355;49.198;-0.368;2023-03-25T09:10:10;100579.31;;;12.65;68.24
49461;BME280;35355;49.198;-0.368;2023-03-25T09:12:37;100580.41;;;12.69;67.96
49461;BME280;35355;49.198;-0.368;2023-03-25T09:15:03;100584.22;;;12.73;68.05
49461;BME280;35355;49.198;-0.368;2023-03-25T09:17:28;100583.09;;;12.79;67.97
49461;BME280;35355;49.198;-0.368;2023-03-25T09:19:54;100586.88;;;12.89;67.84
49461;BME280;35355;49.198;-0.368;2023-03-25T09:22:19;100592.59;;;12.97;68.09
49461;BME280;35355;49.198;-0.368;2023-03-25T09:24:44;100579.41;;;13.05;67.66
49461;BME280;35355;49.198;-0.368;2023-03-25T09:27:10;100588.47;;;13.05;67.69
49461;BME280;35355;49.198;-0.368;2023-03-25T09:29:35;100592.31;;;13.04;67.43
49461;BME280;35355;49.198;-0.368;2023-03-25T09:32:00;100585.75;;;13.05;67.46
49461;BME280;35355;49.198;-0.368;2023-03-25T09:34:27;100589.25;;;13.11;67.40
49461;BME280;35355;49.198;-0.368;2023-03-25T09:36:54;100591.16;;;13.15;67.32
49461;BME280;35355;49.198;-0.368;2023-03-25T09:39:20;100582.91;;;13.21;67.27
49461;BME280;35355;49.198;-0.368;2023-03-25T09:41:53;100588.09;;;13.27;67.12
49461;BME280;35355;49.198;-0.368;2023-03-25T09:44:31;100593.00;;;13.30;67.10
49461;BME280;35355;49.198;-0.368;2023-03-25T09:47:00;100588.84;;;13.33;66.71
49461;BME280;35355;49.198;-0.368;2023-03-25T09:49:36;100598.19;;;13.37;66.69
49461;BME280;35355;49.198;-0.368;2023-03-25T09:52:03;100598.16;;;13.42;66.33
49461;BME280;35355;49.198;-0.368;2023-03-25T09:54:31;100589.38;;;13.45;66.22
49461;BME280;35355;49.198;-0.368;2023-03-25T09:57:05;100599.47;;;13.50;66.19
49461;BME280;35355;49.198;-0.368;2023-03-25T09:59:47;100594.50;;;13.52;66.57
49461;BME280;35355;49.198;-0.368;2023-03-25T10:05:18;100613.13;;;13.55;66.26
49461;BME280;35355;49.198;-0.368;2023-03-25T10:15:42;100616.06;;;13.69;66.05
49461;BME280;35355;49.198;-0.368;2023-03-25T10:18:37;100623.44;;;13.74;66.32
49461;BME280;35355;49.198;-0.368;2023-03-25T10:22:00;100625.88;;;13.75;65.66
49461;BME280;35355;49.198;-0.368;2023-03-25T10:26:59;100627.06;;;13.64;65.69
49461;BME280;35355;49.198;-0.368;2023-03-25T10:29:37;100647.38;;;13.63;65.25
49461;BME280;35355;49.198;-0.368;2023-03-25T10:32:11;100641.34;;;13.61;64.92
49461;BME280;35355;49.198;-0.368;2023-03-25T10:34:50;100655.63;;;13.58;64.78
49461;BME280;35355;49.198;-0.368;2023-03-25T10:37:27;100653.47;;;13.55;64.97
49461;BME280;35355;49.198;-0.368;2023-03-25T10:39:58;100664.69;;;13.58;64.83
49461;BME280;35355;49.198;-0.368;2023-03-25T10:42:37;100657.00;;;13.60;65.20
49461;BME280;35355;49.198;-0.368;2023-03-25T10:45:14;100668.47;;;13.67;65.16
49461;BME280;35355;49.198;-0.368;2023-03-25T10:47:42;100658.28;;;13.73;64.58
49461;BME280;35355;49.198;-0.368;2023-03-25T10:50:15;100663.50;;;13.75;64.97
49461;BME280;35355;49.198;-0.368;2023-03-25T10:52:41;100656.59;;;13.77;64.20
49461;BME280;35355;49.198;-0.368;2023-03-25T10:55:21;100665.66;;;13.78;64.50
49461;BME280;35355;49.198;-0.368;2023-03-25T10:57:49;100662.34;;;13.81;63.93
49461;BME280;35355;49.198;-0.368;2023-03-25T11:00:16;100668.63;;;13.81;63.59
49461;BME280;35355;49.198;-0.368;2023-03-25T11:02:43;100660.13;;;13.83;63.30
49461;BME280;35355;49.198;-0.368;2023-03-25T11:05:11;100660.09;;;13.88;63.42
49461;BME280;35355;49.198;-0.368;2023-03-25T11:07:42;100664.72;;;13.93;63.12
49461;BME280;35355;49.198;-0.368;2023-03-25T11:12:40;100675.03;;;14.06;62.95
49461;BME280;35355;49.198;-0.368;2023-03-25T11:15:23;100683.81;;;14.08;62.87
49461;BME280;35355;49.198;-0.368;2023-03-25T11:18:04;100671.22;;;14.07;63.39
49461;BME280;35355;49.198;-0.368;2023-03-25T11:20:37;100657.72;;;14.11;63.00
49461;BME280;35355;49.198;-0.368;2023-03-25T11:25:43;100679.88;;;14.19;62.57
49461;BME280;35355;49.198;-0.368;2023-03-25T11:28:13;100664.47;;;14.24;62.31
49461;BME280;35355;49.198;-0.368;2023-03-25T11:31:07;100667.22;;;14.24;62.82
49461;BME280;35355;49.198;-0.368;2023-03-25T11:33:34;100676.53;;;14.28;61.58
49461;BME280;35355;49.198;-0.368;2023-03-25T11:36:31;100669.97;;;14.24;62.37
49461;BME280;35355;49.198;-0.368;2023-03-25T11:39:02;100671.59;;;14.25;61.36
49461;BME280;35355;49.198;-0.368;2023-03-25T11:41:35;100676.53;;;14.28;61.08
49461;BME280;35355;49.198;-0.368;2023-03-25T11:44:04;100694.63;;;14.29;61.25
49461;BME280;35355;49.198;-0.368;2023-03-25T11:46:31;100686.94;;;14.31;60.90
49461;BME280;35355;49.198;-0.368;2023-03-25T11:49:07;100686.94;;;14.26;61.38
49461;BME280;35355;49.198;-0.368;2023-03-25T11:51:33;100697.72;;;14.22;61.09
49461;BME280;35355;49.198;-0.368;2023-03-25T11:54:05;100699.38;;;14.18;61.47
49461;BME280;35355;49.198;-0.368;2023-03-25T11:56:40;100696.34;;;14.19;61.83
49461;BME280;35355;49.198;-0.368;2023-03-25T11:59:25;100701.31;;;14.17;61.85
49461;BME280;35355;49.198;-0.368;2023-03-25T12:02:24;100703.50;;;14.15;62.23
49461;BME280;35355;49.198;-0.368;2023-03-25T12:05:14;100700.47;;;14.17;62.25
49461;BME280;35355;49.198;-0.368;2023-03-25T12:07:48;100706.22;;;14.20;61.95
49461;BME280;35355;49.198;-0.368;2023-03-25T12:18:40;100696.34;;;14.19;62.27
49461;BME280;35355;49.198;-0.368;2023-03-25T12:29:34;100686.63;;;14.32;62.95
49461;BME280;35355;49.198;-0.368;2023-03-25T12:32:16;100680.56;;;14.35;62.21
49461;BME280;35355;49.198;-0.368;2023-03-25T12:40:08;100681.25;;;14.51;62.03
49461;BME280;35355;49.198;-0.368;2023-03-25T12:43:10;100682.56;;;14.54;61.96
49461;BME280;35355;49.198;-0.368;2023-03-25T12:45:53;100680.09;;;14.57;61.00
49461;BME280;35355;49.198;-0.368;2023-03-25T12:48:44;100696.00;;;14.55;61.54
49461;BME280;35355;49.198;-0.368;2023-03-25T13:05:13;100679.06;;;14.78;60.05
49461;BME280;35355;49.198;-0.368;2023-03-25T13:07:46;100674.41;;;14.78;59.48
49461;BME280;35355;49.198;-0.368;2023-03-25T13:12:55;100675.22;;;14.79;59.66
49461;BME280;35355;49.198;-0.368;2023-03-25T13:15:25;100669.44;;;14.80;58.72
49461;BME280;35355;49.198;-0.368;2023-03-25T13:18:10;100662.03;;;14.81;58.97
49461;BME280;35355;49.198;-0.368;2023-03-25T13:20:47;100669.09;;;14.87;59.12
49461;BME280;35355;49.198;-0.368;2023-03-25T13:23:18;100664.91;;;14.89;57.78
49461;BME280;35355;49.198;-0.368;2023-03-25T13:26:05;100674.34;;;14.83;58.58
49461;BME280;35355;49.198;-0.368;2023-03-25T13:28:52;100653.78;;;14.81;58.64
49461;BME280;35355;49.198;-0.368;2023-03-25T13:31:25;100654.28;;;14.83;57.35
49461;BME280;35355;49.198;-0.368;2023-03-25T13:36:37;100645.63;;;14.95;57.00
49461;BME280;35355;49.198;-0.368;2023-03-25T13:39:20;100646.69;;;14.99;57.23
49461;BME280;35355;49.198;-0.368;2023-03-25T13:41:52;100655.09;;;15.07;56.72
49461;BME280;35355;49.198;-0.368;2023-03-25T13:44:26;100650.72;;;15.06;56.44
49461;BME280;35355;49.198;-0.368;2023-03-25T13:47:04;100644.69;;;15.04;58.51
49461;BME280;35355;49.198;-0.368;2023-03-25T13:49:40;100636.22;;;15.01;55.37
49461;BME280;35355;49.198;-0.368;2023-03-25T13:52:07;100638.28;;;14.90;55.18
49461;BME280;35355;49.198;-0.368;2023-03-25T13:54:34;100640.13;;;14.95;55.18
49461;BME280;35355;49.198;-0.368;2023-03-25T14:11:08;100633.91;;;15.08;54.77
49461;BME280;35355;49.198;-0.368;2023-03-25T14:13:34;100631.81;;;15.00;54.78
49461;BME280;35355;49.198;-0.368;2023-03-25T14:16:05;100624.75;;;14.94;54.71
49461;BME280;35355;49.198;-0.368;2023-03-25T14:18:39;100636.63;;;14.89;54.97
49461;BME280;35355;49.198;-0.368;2023-03-25T14:21:13;100622.88;;;14.89;57.33
49461;BME280;35355;49.198;-0.368;2023-03-25T14:23:39;100632.47;;;14.91;54.75
49461;BME280;35355;49.198;-0.368;2023-03-25T14:26:07;100627.03;;;14.86;54.53
49461;BME280;35355;49.198;-0.368;2023-03-25T14:28:43;100633.94;;;14.84;54.14
49461;BME280;35355;49.198;-0.368;2023-03-25T14:36:29;100635.34;;;14.81;54.64
49461;BME280;35355;49.198;-0.368;2023-03-25T14:38:55;100629.03;;;14.81;54.23
49461;BME280;35355;49.198;-0.368;2023-03-25T14:44:37;100634.16;;;14.87;54.76
49461;BME280;35355;49.198;-0.368;2023-03-25T14:49:51;100639.31;;;14.94;54.83
49461;BME280;35355;49.198;-0.368;2023-03-25T14:52:41;100641.25;;;14.94;55.58
49461;BME280;35355;49.198;-0.368;2023-03-25T14:55:16;100641.78;;;14.96;54.19
49461;BME280;35355;49.198;-0.368;2023-03-25T14:57:43;100640.13;;;14.95;53.82